Ciampino, Italy

1:31 PM CEST on 四月 24, 2017 (GMT +0200)
Via dei Laghi | | Change Station

高度 492 ft 41.79 °N, 12.61 °E | Updated 52 seconds ago

Scattered Clouds
やや曇
72.3 °F
体感気温 77 °F
3.1
風 変数 風 から 南南東
Gusts 10.6 Mph

今日
高い -- | 低 -- °F
--% 降水確率
昨日
高い -- | 低 -- °F
Precip. -- インチ
気圧 30.12 インチ
視程 6.2 マイル
やや曇 3500 ft
体感気温(暑さ) 77 °F
露点温度 50 °F
湿度 45%
降水 0.00 インチ
積雪深 利用不可。
6:15 AM 8:00 PM
二十六夜, 6% visible
METAR LIRA 241120Z 23008KT 180V280 9999 SCT035 19/08 Q1020
気圧 30.12 インチ
視程 6.2 マイル
やや曇 3500 ft
体感気温(暑さ) 77 °F
露点温度 50 °F
湿度 45%
降水 0.00 インチ
積雪深 利用不可。
6:15 AM 8:00 PM
二十六夜, 6% visible
METAR LIRA 241120Z 23008KT 180V280 9999 SCT035 19/08 Q1020

Get Severe Weather Alerts

Thanks for signing up!

Be on the lookout for a verification email in your inbox.

You'll start receiving the daily forecast at 8 AM.

×

10-Day Weather Forecast

×

Almanac

天文

Apr. 24, 2017 入り
実時間
常用薄明
航海薄明
天文薄明
可視光の長さ
可照時間
Tomorrow will be .
, % of the Moon is Illuminated

今日の極値

Country Highs Country Lows

Community

WunderBlog® & News

Nearby

空気品質

  空気品質 大気質指数 汚染物質
Not available.

積雪深

Station Depth 高度

地震活動

Distance Mag. Time & Date
Minimum magnitude displayed is 2.5.

沿岸の水温

地名 気温

Stations

最寄りの気象観測所

観測所位置 温度 体感気温(寒さ) 露点温度 湿度 Precip. 高度 更新日時 タイプする